KAXN/AXN METAR and TAF weather

Enter ICAO airport designator
Station Type Date Time Source
KAXN METAR 2021/05/07 00:53 UTC NOAA

KAXN 070053Z AUTO 32010G22KT 10SM BKN080 OVC090 13/M02 A3003 RMK AO2 PK WND 32028/0041 SLP179 T01281017 TSNO


Station Type Date Time Source
KAXN Decoded METAR 2021/05/07 00:53 UTC NOAA

CHANDLER FIELD, MN, United States (KAXN) 45-52N 095-24W 433M
May 06, 2021 - 08:53 PM EDT / 2021.05.07 0053 UTC
Wind: from the NW (320 degrees) at 12 MPH (10 KT) gusting to 25 MPH (22 KT):0
Visibility: 10 mile(s):0
Sky conditions: overcast
Temperature: 55.0 F (12.8 C)
Dew Point: 28.9 F (-1.7 C)
Relative Humidity: 36%
Pressure (altimeter): 30.03 in. Hg (1016 hPa)
ob: KAXN 070053Z AUTO 32010G22KT 10SM BKN080 OVC090 13/M02 A3003 RMK AO2 PK WND 32028/0041 SLP179 T01281017 TSNO
cycle: 1

Station Type Date Time Source
KAXN TAF 2021/05/06 18:36 UTC NOAA

TAF KAXN 061733Z 0618/0718 31017G26KT P6SM SCT080
FM070100 34009KT P6SM BKN080
FM070400 35007KT P6SM SKC

Example: see airport list